Corpus Christi International Airport
KCRP : rendu visible

Aérodrome :











RETROUVEZ-NOUS SUR...

 
LOGIN :

S'inscrire | Disclaimer

   EN    FR    IT 

 









Légende :    VFR   VFR Marginal   IFR   IFR Intensif   IFR Très Intensif
Visi : 
Plafond : 
>= 8 km
>= 3000ft
5 à 8 km
1000 à 3000 ft
1500m à 5 km
500 à 1000 ft
800 à 1500m
200 à 500 ft
< 800m
< 200 ft
Symboles :   Orages  Brouillard  Fortes neiges  Fortes précipitations  Vent > 20 kt






- Altitude de l'aérodrome : 44 ft
- Code IATA : CRP


KCRP - Corpus Christi International

DERNIER METAR :
  • 120951Z 35020G28KT 10SM -RA BKN019 OVC025 03/00 A3042 RMK AO2 PK WND 35034/0854 SLP302 RAB31 P0000 T00280000 $

METARs EXPIRÉS :
  • 120851Z 36029G34KT 10SM OVC022 03/00 A3039 RMK AO2 PK WND 36034/0851 SLP289 60000 T00280000 51021 $
  • 120751Z 36023G33KT 10SM OVC020 03/01 A3037 RMK AO2 PK WND 35034/0741 SLP284 T00330006 $

TAF KCRP
Valide du 12 à 06h jusqu'au 13 à 06h UTC


120526Z 1206/1306 36025G35KT P6SM -SHRA VCTS BKN025CB OVC035
TEMPO 1206/1208 2SM TSRA SCT009CB OVC020
FM120800 36021G31KT P6SM -SHRA SCT009 OVC020
TEMPO 1209/1213 2SM +SHRA BR BKN005 OVC012
FM121500 35019G25KT P6SM -RA OVC025
FM122100 35016KT P6SM SCT025 BKN150



MET'MAP, la Météo Aéronautique d'un coup d'oeil ! - Copyright ORBIFLY Décembre 2007 - Disclaimer

ORBIFLY MET'MAP TEAM :

Programmation & Développement : Alexandra Zaïnal
Conception & Développement : Baudouin d'Aumeries
Co-Programmation & Développement : Marc-Olivier Méhu
Soutien technique & logistique : Manuel Goepfert

Contact : metmap@orbifly.com




SOURCES & CREDITS :

   NOAA       Earth
Advisory